canlı casino siteleri, live casino sites, lisanslı casino siteleri, wordpress casino theme bet reviews tipobet canlı bahis siteleri tempobet, 1xbet giriş, kiev escort, betist, bitcoin ile bahis, bitcoin ile bahis para yatırma 자유게시판 - 내일부로 모든 싱글과 앨범이 각종 음원사이트에 다운로드/스트리밍 해금됩니다.+ 26주년

당연히 일본 얘기지만요;;; ㅎㅎㅎ 스트리밍까지 해금하는게 놀랍긴하다만(라인뮤직, 애플뮤직, 스포티파이 등에서 들으실 수 있습니다) 

역시 시대의 흐름이랄까요. 그래도 트위터에서는 이미 CD로 다 갖고있다며 새앨범은 언제나오냐는 얘기도 나오네요ㅎㅎ저도 물론 CD로 갖고있어서 이용하진 않겠지만ㅋㅋ

얼른 앨범소식도 나오면 좋겠어요. 블러드오렌지->리플렉션 발매텀보다 더 긴거 같기도...

+) 라이브앨범인 1/42는 해금되지 않습니다. 


그리고 저도 미스치루 좋아한지 햇수로 13년째가 되었네요 2006년 시루시 나올쯤에 (정확히는 ap bank fes때 보아무대를 보고) 미스치루의 존재를 알았으니깐요

그때가 중학교 2학년이었는데 벌써 예비군 n년차입니다 작년에는 처음으로 미스치루 콘서트도 갔었구요(구마모토 공연이었는데 마침 영상화되어서 더 기쁩니다)


13년 동안 5월 10일은 항상 제 생일도, 가족친척친구 그 누구의 생일도 아니지만 그래도 조금 특별한 날이었던거 같아요. 내일도 그런날이었으면좋겠네요.

다들 즐거운 데뷔 26주년 기념일 되시길바래요.

번호 제목 글쓴이 날짜 조회 수
공지 미스치루 공식 구글드라이브 개설(?) [18] 지원검 2017.01.15 6376
6573 혹시 팬클럽 탈퇴 이후에도 회보 계속 오신 경우 있으신가요?? [1] 미스치루☞ 2018.09.14 98
6572 앨범 발매 3주도 안남았는데 타이틀, 수록곡 정보가 안나오네요 [2] 미스치루☞ 2018.09.14 108
6571 Your Song 때문에 팬클 가입 할려고 하는데요.. [2] 키미 2018.09.07 196
6570 이번 공연 본인확인 제대로 할 작정인가보네요 ㄷㄷ [18] owen 2018.09.02 334
6569 여름이 끝나가니 이 노래를 들어봅시다 [2] 미스치루☞ 2018.08.29 127
6568 25주년 Thanksgiving 자막 만들어 주실 능력자분 부탁 좀 드릴께요 기미가쓰끼 2018.08.26 79
6567 요새 갑자기 빠진 미스치루 노래? [9] Möbius 2018.08.20 212
6566 일본에서 미스치루 가라오케회 다녀왔습니다 [8] 버뮤다 2018.08.19 186
6565 미스치루 회지 나눔(?) 받아주실 분을 찾습니다. 본보야쥬 2018.08.19 79
6564 이번 공연 일반 추첨 하시는분들 계시나요? [6] Brack 2018.08.16 151
6563 25주년 공연 다시 보고있는데 카메라에 저도 잡혔네요ㅋㅋㅋ [2] 미스치루☞ 2018.08.13 150
6562 이번 투어, 다들 어느 공연 준비하시나요? [4] tekken 2018.08.11 150
6561 정말오랜만에회원사진란을다시봤는데 [1] 시리우스 2018.08.10 81
6560 오랜만이에요~!!새삼스럽지만 최애곡 [2] 시리우스 2018.08.10 67
6559 해외 공연은 처음 아닌가요? [4] 유자 2018.08.09 193
6558 이번앨범은 DVD나 USB첨부 없이 CD반 1사양으로 나오네요 [4] 미스치루☞ 2018.08.02 208
6557 드디어 올해 콘서트 일정 나왔네요^^ [11] 365미스치루 2018.08.02 267
6556 신곡 singles 커버 링크(short ver.) [1] hitomi 2018.07.20 168
6555 신곡 Mr.Children - SINGLES / 3분기일드 하게타카예고편 [2] 유자 2018.07.10 352
6554 お伽話, こころ음원추출 공유 [1] 유자 2018.07.09 160
6553 25주년 재인코딩(용량다운) [4] diarmate 2018.07.04 200
6552 25주년 공연 인코딩했습니당 [28] 사다킹 2018.07.02 249
6551 요청만 드려서 죄송합니다만... [3] 조하늘 2018.06.04 197
6550 혹시 FC가입 하신 분 계신가요? 배대지 주소 써도 괜찮나요 [1] 미스치루☞ 2018.05.27 151
» 내일부로 모든 싱글과 앨범이 각종 음원사이트에 다운로드/스트리밍 해금됩니다.+ 26주년 [2] 미스치루☞ 2018.05.09 352
6548 혹시 예전에 올라와있던 미스치루 기타프로악보 갖고계신분있나요? [3] 조하늘 2018.04.24 75
6547 혹시 ap bank fes '18 가시는분 계신가요? [1] zinn 2018.04.16 194
6546 코드블루 극장판 주제가 HANABI 결정 [2] 미스치루☞ 2018.04.11 289
6545 4월의 반가운 소식 [8] 지원검 2018.04.08 369
6544 25주년 인코딩된 영상 공유 부탁드립니다. [2] Windel 2018.04.05 233
CLOSE